sensor_id;sensor_type;location;lat;lon;timestamp;temperature;humidity
32147;DHT22;32190;49.112;8.598;2024-01-07T00:05:01;9.00;67.20
32147;DHT22;32190;49.112;8.598;2024-01-07T00:10:52;8.90;67.20
32147;DHT22;32190;49.112;8.598;2024-01-07T00:16:43;8.90;67.30
32147;DHT22;32190;49.112;8.598;2024-01-07T00:22:33;8.80;67.40
32147;DHT22;32190;49.112;8.598;2024-01-07T00:28:24;8.80;67.50
32147;DHT22;32190;49.112;8.598;2024-01-07T00:34:14;8.80;67.60
32147;DHT22;32190;49.112;8.598;2024-01-07T00:40:08;8.80;67.70
32147;DHT22;32190;49.112;8.598;2024-01-07T00:45:58;8.80;67.60
32147;DHT22;32190;49.112;8.598;2024-01-07T00:51:49;8.70;67.80
32147;DHT22;32190;49.112;8.598;2024-01-07T00:57:40;8.70;67.80
32147;DHT22;32190;49.112;8.598;2024-01-07T01:03:31;8.70;67.90
32147;DHT22;32190;49.112;8.598;2024-01-07T01:09:22;8.80;67.80
32147;DHT22;32190;49.112;8.598;2024-01-07T01:15:12;8.80;67.70
32147;DHT22;32190;49.112;8.598;2024-01-07T01:21:04;8.80;67.60
32147;DHT22;32190;49.112;8.598;2024-01-07T01:26:54;8.80;67.70
32147;DHT22;32190;49.112;8.598;2024-01-07T01:32:45;8.80;67.70
32147;DHT22;32190;49.112;8.598;2024-01-07T01:38:35;8.80;67.60
32147;DHT22;32190;49.112;8.598;2024-01-07T01:44:26;8.80;67.50
32147;DHT22;32190;49.112;8.598;2024-01-07T01:50:19;8.70;67.70
32147;DHT22;32190;49.112;8.598;2024-01-07T01:56:10;8.60;67.80
32147;DHT22;32190;49.112;8.598;2024-01-07T02:02:01;8.60;68.00
32147;DHT22;32190;49.112;8.598;2024-01-07T02:07:52;8.50;68.00
32147;DHT22;32190;49.112;8.598;2024-01-07T02:13:43;8.50;68.00
32147;DHT22;32190;49.112;8.598;2024-01-07T02:19:34;8.50;68.70
32147;DHT22;32190;49.112;8.598;2024-01-07T02:25:25;8.50;68.10
32147;DHT22;32190;49.112;8.598;2024-01-07T02:31:15;8.50;68.00
32147;DHT22;32190;49.112;8.598;2024-01-07T02:37:06;8.50;68.00
32147;DHT22;32190;49.112;8.598;2024-01-07T02:42:56;8.60;68.00
32147;DHT22;32190;49.112;8.598;2024-01-07T02:48:48;8.60;68.00
32147;DHT22;32190;49.112;8.598;2024-01-07T02:54:39;8.60;67.90
32147;DHT22;32190;49.112;8.598;2024-01-07T03:00:29;8.60;68.00
32147;DHT22;32190;49.112;8.598;2024-01-07T03:06:20;8.60;68.00
32147;DHT22;32190;49.112;8.598;2024-01-07T03:12:11;8.50;67.90
32147;DHT22;32190;49.112;8.598;2024-01-07T03:18:01;8.60;68.00
32147;DHT22;32190;49.112;8.598;2024-01-07T03:23:52;8.60;68.00
32147;DHT22;32190;49.112;8.598;2024-01-07T03:29:42;8.50;67.90
32147;DHT22;32190;49.112;8.598;2024-01-07T03:35:33;8.60;68.00
32147;DHT22;32190;49.112;8.598;2024-01-07T03:41:23;8.60;68.00
32147;DHT22;32190;49.112;8.598;2024-01-07T03:47:14;8.50;67.90
32147;DHT22;32190;49.112;8.598;2024-01-07T03:53:05;8.50;68.00
32147;DHT22;32190;49.112;8.598;2024-01-07T03:58:55;8.50;68.00
32147;DHT22;32190;49.112;8.598;2024-01-07T04:04:46;8.60;68.00
32147;DHT22;32190;49.112;8.598;2024-01-07T04:10:37;8.60;67.90
32147;DHT22;32190;49.112;8.598;2024-01-07T04:16:31;8.50;68.60
32147;DHT22;32190;49.112;8.598;2024-01-07T04:22:21;8.50;68.00
32147;DHT22;32190;49.112;8.598;2024-01-07T04:28:12;8.40;68.10
32147;DHT22;32190;49.112;8.598;2024-01-07T04:34:02;8.40;68.20
32147;DHT22;32190;49.112;8.598;2024-01-07T04:39:53;8.50;68.10
32147;DHT22;32190;49.112;8.598;2024-01-07T04:45:44;8.40;68.00
32147;DHT22;32190;49.112;8.598;2024-01-07T04:51:34;8.40;68.10
32147;DHT22;32190;49.112;8.598;2024-01-07T04:57:26;8.40;68.20
32147;DHT22;32190;49.112;8.598;2024-01-07T05:03:17;8.40;68.20
32147;DHT22;32190;49.112;8.598;2024-01-07T05:09:07;8.40;68.40
32147;DHT22;32190;49.112;8.598;2024-01-07T05:14:58;8.40;68.90
32147;DHT22;32190;49.112;8.598;2024-01-07T05:20:49;8.40;68.20
32147;DHT22;32190;49.112;8.598;2024-01-07T05:26:42;8.40;68.30
32147;DHT22;32190;49.112;8.598;2024-01-07T05:32:33;8.40;68.40
32147;DHT22;32190;49.112;8.598;2024-01-07T05:38:24;8.30;68.40
32147;DHT22;32190;49.112;8.598;2024-01-07T05:44:14;8.40;68.40
32147;DHT22;32190;49.112;8.598;2024-01-07T05:50:05;8.40;68.30
32147;DHT22;32190;49.112;8.598;2024-01-07T05:55:55;8.30;68.30
32147;DHT22;32190;49.112;8.598;2024-01-07T06:01:46;8.30;68.30
32147;DHT22;32190;49.112;8.598;2024-01-07T06:07:37;8.30;68.40
32147;DHT22;32190;49.112;8.598;2024-01-07T06:13:27;8.30;68.30
32147;DHT22;32190;49.112;8.598;2024-01-07T06:19:18;8.30;68.20
32147;DHT22;32190;49.112;8.598;2024-01-07T06:25:09;8.30;68.30
32147;DHT22;32190;49.112;8.598;2024-01-07T06:31:02;8.20;68.30
32147;DHT22;32190;49.112;8.598;2024-01-07T06:36:53;8.20;68.40
32147;DHT22;32190;49.112;8.598;2024-01-07T06:42:43;8.30;68.50
32147;DHT22;32190;49.112;8.598;2024-01-07T06:48:35;8.30;68.40
32147;DHT22;32190;49.112;8.598;2024-01-07T06:54:25;8.30;68.30
32147;DHT22;32190;49.112;8.598;2024-01-07T07:00:16;8.30;68.20
32147;DHT22;32190;49.112;8.598;2024-01-07T07:06:08;8.40;68.20
32147;DHT22;32190;49.112;8.598;2024-01-07T07:11:58;8.40;68.20
32147;DHT22;32190;49.112;8.598;2024-01-07T07:17:49;8.40;68.20
32147;DHT22;32190;49.112;8.598;2024-01-07T07:23:39;8.30;68.20
32147;DHT22;32190;49.112;8.598;2024-01-07T07:29:33;8.30;68.20
32147;DHT22;32190;49.112;8.598;2024-01-07T07:35:23;8.30;68.30
32147;DHT22;32190;49.112;8.598;2024-01-07T07:41:14;8.30;68.20
32147;DHT22;32190;49.112;8.598;2024-01-07T07:47:05;8.30;68.30
32147;DHT22;32190;49.112;8.598;2024-01-07T07:52:55;8.40;68.30
32147;DHT22;32190;49.112;8.598;2024-01-07T07:58:46;8.40;68.30
32147;DHT22;32190;49.112;8.598;2024-01-07T08:04:37;8.40;68.40
32147;DHT22;32190;49.112;8.598;2024-01-07T08:10:27;8.40;68.20
32147;DHT22;32190;49.112;8.598;2024-01-07T08:16:19;8.40;68.30
32147;DHT22;32190;49.112;8.598;2024-01-07T08:22:09;8.40;68.30
32147;DHT22;32190;49.112;8.598;2024-01-07T08:28:00;8.40;68.30
32147;DHT22;32190;49.112;8.598;2024-01-07T08:33:50;8.50;68.40
32147;DHT22;32190;49.112;8.598;2024-01-07T08:39:41;8.50;68.40
32147;DHT22;32190;49.112;8.598;2024-01-07T08:45:31;8.60;68.20
32147;DHT22;32190;49.112;8.598;2024-01-07T08:51:22;8.60;68.10
32147;DHT22;32190;49.112;8.598;2024-01-07T08:57:13;8.60;68.20
32147;DHT22;32190;49.112;8.598;2024-01-07T09:03:03;8.60;68.20
32147;DHT22;32190;49.112;8.598;2024-01-07T09:08:54;8.70;68.10
32147;DHT22;32190;49.112;8.598;2024-01-07T09:14:44;8.70;68.20
32147;DHT22;32190;49.112;8.598;2024-01-07T09:20:35;8.80;68.20
32147;DHT22;32190;49.112;8.598;2024-01-07T09:26:25;8.90;68.20
32147;DHT22;32190;49.112;8.598;2024-01-07T09:32:16;8.80;68.10
32147;DHT22;32190;49.112;8.598;2024-01-07T09:38:07;8.90;68.20
32147;DHT22;32190;49.112;8.598;2024-01-07T09:43:58;8.90;68.30
32147;DHT22;32190;49.112;8.598;2024-01-07T09:49:49;8.90;68.20
32147;DHT22;32190;49.112;8.598;2024-01-07T09:55:49;9.00;68.10
32147;DHT22;32190;49.112;8.598;2024-01-07T10:01:44;9.10;67.50
32147;DHT22;32190;49.112;8.598;2024-01-07T10:07:36;9.10;67.20
32147;DHT22;32190;49.112;8.598;2024-01-07T10:13:26;9.10;66.50
32147;DHT22;32190;49.112;8.598;2024-01-07T10:19:24;9.10;66.40
32147;DHT22;32190;49.112;8.598;2024-01-07T10:25:15;9.10;65.60
32147;DHT22;32190;49.112;8.598;2024-01-07T10:31:06;9.10;65.80
32147;DHT22;32190;49.112;8.598;2024-01-07T10:37:01;9.10;65.20
32147;DHT22;32190;49.112;8.598;2024-01-07T10:42:52;9.00;65.00
32147;DHT22;32190;49.112;8.598;2024-01-07T10:49:04;9.00;64.90
32147;DHT22;32190;49.112;8.598;2024-01-07T10:55:03;8.90;63.70
32147;DHT22;32190;49.112;8.598;2024-01-07T11:00:57;8.90;63.80
32147;DHT22;32190;49.112;8.598;2024-01-07T11:07:03;8.80;63.70
32147;DHT22;32190;49.112;8.598;2024-01-07T11:12:55;8.80;63.50
32147;DHT22;32190;49.112;8.598;2024-01-07T11:18:49;8.90;64.00
32147;DHT22;32190;49.112;8.598;2024-01-07T11:24:41;8.90;63.70
32147;DHT22;32190;49.112;8.598;2024-01-07T11:30:38;8.90;63.50
32147;DHT22;32190;49.112;8.598;2024-01-07T11:36:29;8.90;63.00
32147;DHT22;32190;49.112;8.598;2024-01-07T11:42:20;9.00;63.40
32147;DHT22;32190;49.112;8.598;2024-01-07T11:48:11;9.00;63.00
32147;DHT22;32190;49.112;8.598;2024-01-07T11:54:01;9.00;62.70
32147;DHT22;32190;49.112;8.598;2024-01-07T11:59:52;9.00;62.70
32147;DHT22;32190;49.112;8.598;2024-01-07T12:05:42;9.00;62.70
32147;DHT22;32190;49.112;8.598;2024-01-07T12:11:33;9.10;62.20
32147;DHT22;32190;49.112;8.598;2024-01-07T12:17:24;9.00;62.10
32147;DHT22;32190;49.112;8.598;2024-01-07T12:23:16;9.00;62.10
32147;DHT22;32190;49.112;8.598;2024-01-07T12:29:06;9.00;62.30
32147;DHT22;32190;49.112;8.598;2024-01-07T12:34:58;9.00;61.30
32147;DHT22;32190;49.112;8.598;2024-01-07T12:40:53;8.90;61.40
32147;DHT22;32190;49.112;8.598;2024-01-07T12:46:44;8.90;61.50
32147;DHT22;32190;49.112;8.598;2024-01-07T12:52:38;8.90;61.60
32147;DHT22;32190;49.112;8.598;2024-01-07T12:58:32;8.90;61.30
32147;DHT22;32190;49.112;8.598;2024-01-07T13:04:23;8.80;61.40
32147;DHT22;32190;49.112;8.598;2024-01-07T13:10:13;8.80;61.40
32147;DHT22;32190;49.112;8.598;2024-01-07T13:16:05;8.80;61.10
32147;DHT22;32190;49.112;8.598;2024-01-07T13:21:55;8.80;60.90
32147;DHT22;32190;49.112;8.598;2024-01-07T13:27:48;8.80;60.90
32147;DHT22;32190;49.112;8.598;2024-01-07T13:33:39;8.80;60.10
32147;DHT22;32190;49.112;8.598;2024-01-07T13:39:29;8.70;60.10
32147;DHT22;32190;49.112;8.598;2024-01-07T13:45:20;8.60;60.40
32147;DHT22;32190;49.112;8.598;2024-01-07T13:51:13;8.60;59.50
32147;DHT22;32190;49.112;8.598;2024-01-07T13:57:04;8.50;59.60
32147;DHT22;32190;49.112;8.598;2024-01-07T14:02:54;8.40;59.70
32147;DHT22;32190;49.112;8.598;2024-01-07T14:08:45;8.40;59.50
32147;DHT22;32190;49.112;8.598;2024-01-07T14:14:36;8.40;59.80
32147;DHT22;32190;49.112;8.598;2024-01-07T14:20:26;8.40;59.80
32147;DHT22;32190;49.112;8.598;2024-01-07T14:26:18;8.30;59.50
32147;DHT22;32190;49.112;8.598;2024-01-07T14:32:13;8.30;59.20
32147;DHT22;32190;49.112;8.598;2024-01-07T14:38:04;8.30;59.40
32147;DHT22;32190;49.112;8.598;2024-01-07T14:43:54;8.20;59.10
32147;DHT22;32190;49.112;8.598;2024-01-07T14:49:45;8.20;58.90
32147;DHT22;32190;49.112;8.598;2024-01-07T14:55:36;8.10;58.60
32147;DHT22;32190;49.112;8.598;2024-01-07T15:01:26;8.00;58.80
32147;DHT22;32190;49.112;8.598;2024-01-07T15:07:18;8.00;58.90
32147;DHT22;32190;49.112;8.598;2024-01-07T15:13:08;8.00;58.40
32147;DHT22;32190;49.112;8.598;2024-01-07T15:19:00;8.00;58.80
32147;DHT22;32190;49.112;8.598;2024-01-07T15:24:51;7.90;58.60
32147;DHT22;32190;49.112;8.598;2024-01-07T15:30:43;7.90;58.40
32147;DHT22;32190;49.112;8.598;2024-01-07T15:36:34;7.90;57.70
32147;DHT22;32190;49.112;8.598;2024-01-07T15:42:24;7.80;58.10
32147;DHT22;32190;49.112;8.598;2024-01-07T15:48:17;7.80;57.80
32147;DHT22;32190;49.112;8.598;2024-01-07T15:54:08;7.80;58.00
32147;DHT22;32190;49.112;8.598;2024-01-07T15:59:59;7.80;57.90
32147;DHT22;32190;49.112;8.598;2024-01-07T16:05:49;7.80;57.90
32147;DHT22;32190;49.112;8.598;2024-01-07T16:11:40;7.70;57.50
32147;DHT22;32190;49.112;8.598;2024-01-07T16:17:32;7.70;57.40
32147;DHT22;32190;49.112;8.598;2024-01-07T16:23:22;7.60;57.50
32147;DHT22;32190;49.112;8.598;2024-01-07T16:29:15;7.60;57.40
32147;DHT22;32190;49.112;8.598;2024-01-07T16:35:06;7.50;57.30
32147;DHT22;32190;49.112;8.598;2024-01-07T16:40:57;7.50;57.00
32147;DHT22;32190;49.112;8.598;2024-01-07T16:46:47;7.50;57.10
32147;DHT22;32190;49.112;8.598;2024-01-07T16:52:38;7.40;57.40
32147;DHT22;32190;49.112;8.598;2024-01-07T16:58:28;7.40;57.70
32147;DHT22;32190;49.112;8.598;2024-01-07T17:04:19;7.40;57.30
32147;DHT22;32190;49.112;8.598;2024-01-07T17:10:11;7.30;57.50
32147;DHT22;32190;49.112;8.598;2024-01-07T17:16:01;7.10;57.80
32147;DHT22;32190;49.112;8.598;2024-01-07T17:21:52;7.00;58.00
32147;DHT22;32190;49.112;8.598;2024-01-07T17:27:43;6.80;58.10
32147;DHT22;32190;49.112;8.598;2024-01-07T17:33:33;6.80;58.10
32147;DHT22;32190;49.112;8.598;2024-01-07T17:39:24;6.80;58.20
32147;DHT22;32190;49.112;8.598;2024-01-07T17:45:14;6.80;57.40
32147;DHT22;32190;49.112;8.598;2024-01-07T17:51:05;6.70;57.40
32147;DHT22;32190;49.112;8.598;2024-01-07T17:56:57;6.70;57.70
32147;DHT22;32190;49.112;8.598;2024-01-07T18:02:48;6.60;57.30
32147;DHT22;32190;49.112;8.598;2024-01-07T18:08:39;6.60;57.10
32147;DHT22;32190;49.112;8.598;2024-01-07T18:14:29;6.60;57.50
32147;DHT22;32190;49.112;8.598;2024-01-07T18:20:20;6.50;57.50
32147;DHT22;32190;49.112;8.598;2024-01-07T18:26:11;6.50;57.70
32147;DHT22;32190;49.112;8.598;2024-01-07T18:32:01;6.60;57.80
32147;DHT22;32190;49.112;8.598;2024-01-07T18:37:55;6.60;57.80
32147;DHT22;32190;49.112;8.598;2024-01-07T18:43:46;6.60;57.80
32147;DHT22;32190;49.112;8.598;2024-01-07T18:49:38;6.60;57.40
32147;DHT22;32190;49.112;8.598;2024-01-07T18:55:28;6.50;57.10
32147;DHT22;32190;49.112;8.598;2024-01-07T19:01:21;6.40;57.20
32147;DHT22;32190;49.112;8.598;2024-01-07T19:07:11;6.50;58.10
32147;DHT22;32190;49.112;8.598;2024-01-07T19:13:02;6.50;58.00
32147;DHT22;32190;49.112;8.598;2024-01-07T19:18:53;6.60;56.80
32147;DHT22;32190;49.112;8.598;2024-01-07T19:24:43;6.60;56.10
32147;DHT22;32190;49.112;8.598;2024-01-07T19:30:34;6.60;56.40
32147;DHT22;32190;49.112;8.598;2024-01-07T19:36:24;6.60;55.80
32147;DHT22;32190;49.112;8.598;2024-01-07T19:42:15;6.50;55.90
32147;DHT22;32190;49.112;8.598;2024-01-07T19:48:06;6.50;56.40
32147;DHT22;32190;49.112;8.598;2024-01-07T19:53:57;6.50;56.20
32147;DHT22;32190;49.112;8.598;2024-01-07T19:59:47;6.40;55.50
32147;DHT22;32190;49.112;8.598;2024-01-07T20:05:38;6.50;56.40
32147;DHT22;32190;49.112;8.598;2024-01-07T20:11:29;6.50;56.40
32147;DHT22;32190;49.112;8.598;2024-01-07T20:17:19;6.50;56.60
32147;DHT22;32190;49.112;8.598;2024-01-07T20:23:10;6.60;56.60
32147;DHT22;32190;49.112;8.598;2024-01-07T20:29:01;6.70;55.30
32147;DHT22;32190;49.112;8.598;2024-01-07T20:34:57;6.60;55.10
32147;DHT22;32190;49.112;8.598;2024-01-07T20:40:48;6.50;55.40
32147;DHT22;32190;49.112;8.598;2024-01-07T20:46:39;6.50;55.00
32147;DHT22;32190;49.112;8.598;2024-01-07T20:52:29;6.50;55.80
32147;DHT22;32190;49.112;8.598;2024-01-07T20:58:20;6.50;55.70
32147;DHT22;32190;49.112;8.598;2024-01-07T21:04:10;6.50;55.10
32147;DHT22;32190;49.112;8.598;2024-01-07T21:10:01;6.40;54.70
32147;DHT22;32190;49.112;8.598;2024-01-07T21:15:53;6.30;54.80
32147;DHT22;32190;49.112;8.598;2024-01-07T21:21:43;6.20;55.10
32147;DHT22;32190;49.112;8.598;2024-01-07T21:27:34;6.30;55.10
32147;DHT22;32190;49.112;8.598;2024-01-07T21:33:25;6.30;54.30
32147;DHT22;32190;49.112;8.598;2024-01-07T21:39:17;6.20;54.60
32147;DHT22;32190;49.112;8.598;2024-01-07T21:45:09;6.20;54.90
32147;DHT22;32190;49.112;8.598;2024-01-07T21:51:00;6.20;53.80
32147;DHT22;32190;49.112;8.598;2024-01-07T21:56:52;6.10;54.50
32147;DHT22;32190;49.112;8.598;2024-01-07T22:02:43;6.10;54.60
32147;DHT22;32190;49.112;8.598;2024-01-07T22:08:34;6.10;54.00
32147;DHT22;32190;49.112;8.598;2024-01-07T22:14:25;6.10;54.90
32147;DHT22;32190;49.112;8.598;2024-01-07T22:20:16;6.10;53.90
32147;DHT22;32190;49.112;8.598;2024-01-07T22:26:06;6.00;54.10
32147;DHT22;32190;49.112;8.598;2024-01-07T22:31:57;6.00;53.60
32147;DHT22;32190;49.112;8.598;2024-01-07T22:37:49;6.00;53.80
32147;DHT22;32190;49.112;8.598;2024-01-07T22:43:40;6.00;54.00
32147;DHT22;32190;49.112;8.598;2024-01-07T22:49:30;6.00;53.50
32147;DHT22;32190;49.112;8.598;2024-01-07T22:55:21;6.00;53.40
32147;DHT22;32190;49.112;8.598;2024-01-07T23:01:11;5.90;53.10
32147;DHT22;32190;49.112;8.598;2024-01-07T23:07:02;5.80;53.90
32147;DHT22;32190;49.112;8.598;2024-01-07T23:12:53;5.90;54.00
32147;DHT22;32190;49.112;8.598;2024-01-07T23:18:43;5.90;53.80
32147;DHT22;32190;49.112;8.598;2024-01-07T23:24:38;5.90;53.80
32147;DHT22;32190;49.112;8.598;2024-01-07T23:30:29;5.90;53.60
32147;DHT22;32190;49.112;8.598;2024-01-07T23:36:19;5.90;53.60
32147;DHT22;32190;49.112;8.598;2024-01-07T23:42:12;5.80;53.50
32147;DHT22;32190;49.112;8.598;2024-01-07T23:48:03;5.80;53.00
32147;DHT22;32190;49.112;8.598;2024-01-07T23:53:54;5.70;53.20
32147;DHT22;32190;49.112;8.598;2024-01-07T23:59:45;5.70;52.80
